Time;durP1;ratioP1;P1;durP2;ratioP2;P2;SDS_P1;SDS_P2;PMS_P1;PMS_P2;Temp;Humidity;BMP_temperature;BMP_pressure;BME280_temperature;BME280_humidity;BME280_pressure;Samples;Min_cycle;Max_cycle;Signal;HPM_P1;HPM_P2
2022/01/17 00:00:34;;;;;;;23.02;10.10;;;;;;;;;;5032439;28;20029;-74
2022/01/17 00:03:00;;;;;;;21.90;9.77;;;;;;;;;;5031538;28;20102;-75
2022/01/17 00:05:27;;;;;;;23.05;9.75;;;;;;;;;;5032026;28;20476;-74
2022/01/17 00:07:52;;;;;;;17.17;7.68;;;;;;;;;;5031805;28;20031;-76
2022/01/17 00:10:18;;;;;;;23.92;10.65;;;;;;;;;;5032716;28;20283;-74
2022/01/17 00:12:45;;;;;;;19.27;8.80;;;;;;;;;;5032466;28;20518;-75
2022/01/17 00:15:21;;;;;;;18.05;8.38;;;;;;;;;;5032478;28;20021;-75
2022/01/17 00:17:51;;;;;;;26.35;10.38;;;;;;;;;;5031660;28;20064;-75
2022/01/17 00:20:24;;;;;;;19.65;8.80;;;;;;;;;;5031467;28;20029;-74
2022/01/17 00:22:50;;;;;;;26.92;9.85;;;;;;;;;;5012595;28;20025;-75
2022/01/17 00:25:15;;;;;;;25.08;10.05;;;;;;;;;;5026480;28;20033;-75
2022/01/17 00:27:41;;;;;;;27.27;10.20;;;;;;;;;;5031469;28;20053;-75
2022/01/17 00:30:09;;;;;;;24.17;10.05;;;;;;;;;;5032249;28;20036;-75
2022/01/17 00:32:35;;;;;;;23.48;9.68;;;;;;;;;;5031705;28;20117;-75
2022/01/17 00:35:00;;;;;;;28.00;10.82;;;;;;;;;;5031416;28;20104;-75
2022/01/17 00:37:25;;;;;;;24.63;10.23;;;;;;;;;;5031672;28;20025;-75
2022/01/17 00:39:50;;;;;;;25.30;10.90;;;;;;;;;;5032141;28;20060;-74
2022/01/17 00:42:16;;;;;;;25.42;9.82;;;;;;;;;;5031530;28;20468;-75
2022/01/17 00:44:41;;;;;;;21.92;9.23;;;;;;;;;;5031860;28;20036;-75
2022/01/17 00:47:07;;;;;;;19.60;9.15;;;;;;;;;;5031174;28;20041;-75
2022/01/17 00:49:32;;;;;;;24.67;9.05;;;;;;;;;;5031319;28;20041;-75
2022/01/17 00:51:57;;;;;;;24.00;9.98;;;;;;;;;;5031341;28;20045;-75
2022/01/17 00:54:23;;;;;;;23.80;9.10;;;;;;;;;;5031358;28;20029;-75
2022/01/17 00:56:48;;;;;;;23.42;9.00;;;;;;;;;;5031753;28;20064;-74
2022/01/17 00:59:13;;;;;;;28.08;10.82;;;;;;;;;;5030132;28;20109;-74
2022/01/17 01:01:39;;;;;;;26.38;11.23;;;;;;;;;;5027048;28;20025;-75
2022/01/17 01:04:04;;;;;;;26.85;10.30;;;;;;;;;;5031689;28;20025;-76
2022/01/17 01:06:30;;;;;;;26.73;10.57;;;;;;;;;;5031478;28;20025;-76
2022/01/17 01:08:56;;;;;;;24.50;10.18;;;;;;;;;;5017057;28;20025;-76
2022/01/17 01:11:21;;;;;;;23.10;9.43;;;;;;;;;;5012304;28;20030;-75
2022/01/17 01:13:47;;;;;;;26.40;9.52;;;;;;;;;;5011179;28;20472;-75
2022/01/17 01:19:28;;;;;;;25.75;10.43;;;;;;;;;;5011272;28;20036;-76
2022/01/17 01:21:47;;;;;;;26.45;10.68;;;;;;;;;;5004232;28;20038;-75
2022/01/17 01:29:55;;;;;;;24.38;9.23;;;;;;;;;;5031212;28;20032;-75
2022/01/17 01:32:24;;;;;;;23.42;8.98;;;;;;;;;;5031141;28;20483;-74
2022/01/17 01:34:52;;;;;;;27.30;10.38;;;;;;;;;;5030402;28;20479;-74
2022/01/17 01:37:18;;;;;;;24.58;9.60;;;;;;;;;;5031084;28;20035;-75
2022/01/17 01:39:43;;;;;;;24.52;10.30;;;;;;;;;;5030944;28;20021;-75
2022/01/17 01:42:14;;;;;;;26.30;10.02;;;;;;;;;;5030395;28;20108;-75
2022/01/17 01:44:40;;;;;;;24.42;9.73;;;;;;;;;;5030641;28;20107;-74
2022/01/17 01:47:05;;;;;;;25.45;9.95;;;;;;;;;;5031293;28;20084;-75
2022/01/17 01:49:31;;;;;;;26.13;10.10;;;;;;;;;;5029968;28;20025;-76
2022/01/17 01:51:56;;;;;;;20.77;8.95;;;;;;;;;;5030731;28;20040;-75
2022/01/17 01:54:21;;;;;;;20.55;9.68;;;;;;;;;;5030340;28;20034;-74
2022/01/17 01:56:48;;;;;;;25.75;9.65;;;;;;;;;;5027004;28;20036;-75
2022/01/17 01:59:16;;;;;;;24.90;9.73;;;;;;;;;;5025554;28;20388;-75
2022/01/17 02:01:42;;;;;;;26.58;9.63;;;;;;;;;;5030492;28;20545;-75
2022/01/17 02:04:08;;;;;;;23.85;9.20;;;;;;;;;;5030001;28;20486;-75
2022/01/17 02:06:34;;;;;;;30.00;10.32;;;;;;;;;;5030341;28;20113;-75
2022/01/17 02:09:01;;;;;;;23.90;9.98;;;;;;;;;;5030105;28;20057;-75
2022/01/17 02:11:26;;;;;;;26.80;10.45;;;;;;;;;;5029924;28;20026;-75
2022/01/17 02:13:52;;;;;;;26.60;9.57;;;;;;;;;;5024097;28;20494;-75
2022/01/17 02:16:19;;;;;;;28.52;9.60;;;;;;;;;;5024550;28;20476;-75
2022/01/17 02:18:45;;;;;;;22.00;9.43;;;;;;;;;;5023490;28;20036;-75
2022/01/17 02:21:32;;;;;;;25.25;9.50;;;;;;;;;;5025521;28;20482;-75
2022/01/17 02:23:58;;;;;;;24.65;9.18;;;;;;;;;;5026051;28;20056;-75
2022/01/17 02:26:23;;;;;;;22.83;9.73;;;;;;;;;;5029432;28;20037;-75
2022/01/17 02:28:51;;;;;;;23.98;9.38;;;;;;;;;;5029194;28;20029;-75
2022/01/17 02:31:18;;;;;;;22.17;9.65;;;;;;;;;;5010076;28;20022;-75
2022/01/17 02:33:44;;;;;;;21.80;10.57;;;;;;;;;;5009358;28;20032;-75
2022/01/17 02:36:10;;;;;;;23.92;9.63;;;;;;;;;;5023240;28;20037;-75
2022/01/17 02:38:38;;;;;;;24.20;9.73;;;;;;;;;;5029554;28;20510;-75
2022/01/17 02:41:03;;;;;;;28.65;11.00;;;;;;;;;;5029533;28;20116;-75
2022/01/17 02:43:31;;;;;;;22.92;9.57;;;;;;;;;;5029544;28;20116;-75
2022/01/17 02:48:24;;;;;;;23.95;10.10;;;;;;;;;;5029434;28;20025;-75
2022/01/17 02:50:50;;;;;;;26.02;9.20;;;;;;;;;;5029679;28;20029;-75
2022/01/17 02:53:17;;;;;;;30.35;10.10;;;;;;;;;;5030002;28;20037;-75
2022/01/17 02:55:50;;;;;;;23.27;9.13;;;;;;;;;;5021113;28;20021;-75
2022/01/17 02:58:19;;;;;;;26.30;10.02;;;;;;;;;;5010110;28;20373;-75
2022/01/17 03:00:45;;;;;;;23.80;10.15;;;;;;;;;;5009375;28;20022;-73
2022/01/17 03:03:21;;;;;;;22.13;9.85;;;;;;;;;;5008387;28;20121;-75
2022/01/17 03:05:48;;;;;;;23.77;8.82;;;;;;;;;;5009195;28;20444;-76
2022/01/17 03:08:15;;;;;;;22.52;9.80;;;;;;;;;;5021908;28;20028;-75
2022/01/17 03:10:43;;;;;;;26.63;9.45;;;;;;;;;;5028188;28;20023;-75
2022/01/17 03:13:20;;;;;;;23.52;9.57;;;;;;;;;;5029420;28;20108;-75
2022/01/17 03:15:47;;;;;;;22.02;9.98;;;;;;;;;;5028728;28;20091;-76
2022/01/17 03:18:13;;;;;;;22.30;9.02;;;;;;;;;;5029308;28;20029;-75
2022/01/17 03:20:39;;;;;;;28.50;10.32;;;;;;;;;;5028735;28;20033;-75
2022/01/17 03:23:08;;;;;;;24.38;10.30;;;;;;;;;;5029285;28;20067;-75
2022/01/17 03:25:34;;;;;;;22.90;9.80;;;;;;;;;;5028720;28;20039;-75
2022/01/17 03:27:59;;;;;;;25.15;9.55;;;;;;;;;;5029110;28;20108;-75
2022/01/17 03:30:26;;;;;;;26.98;10.20;;;;;;;;;;5028835;28;20029;-75
2022/01/17 03:32:52;;;;;;;27.23;9.40;;;;;;;;;;5029188;28;20026;-76
2022/01/17 03:35:17;;;;;;;30.65;10.73;;;;;;;;;;5028791;28;20040;-75
2022/01/17 03:37:44;;;;;;;25.05;9.75;;;;;;;;;;5029385;28;20021;-75
2022/01/17 03:40:10;;;;;;;27.13;9.93;;;;;;;;;;5028531;28;20108;-75
2022/01/17 03:42:36;;;;;;;26.98;10.88;;;;;;;;;;5027606;28;20022;-75
2022/01/17 03:45:04;;;;;;;25.63;9.52;;;;;;;;;;5028632;28;20036;-75
2022/01/17 03:47:29;;;;;;;24.98;9.95;;;;;;;;;;5028806;28;20029;-75
2022/01/17 03:49:55;;;;;;;26.27;10.73;;;;;;;;;;5028681;28;20025;-75
2022/01/17 03:52:20;;;;;;;25.85;10.85;;;;;;;;;;5028992;28;20021;-75
2022/01/17 03:54:45;;;;;;;25.80;10.30;;;;;;;;;;5028071;28;20025;-76
2022/01/17 03:57:11;;;;;;;26.75;10.88;;;;;;;;;;5029474;28;20040;-75
2022/01/17 03:59:36;;;;;;;22.90;9.32;;;;;;;;;;5022306;28;20040;-75
2022/01/17 04:02:03;;;;;;;24.58;9.20;;;;;;;;;;5007776;28;20131;-75
2022/01/17 04:04:28;;;;;;;23.08;9.40;;;;;;;;;;5028083;28;20033;-75
2022/01/17 04:06:53;;;;;;;25.42;9.65;;;;;;;;;;5028991;28;20526;-75
2022/01/17 04:09:19;;;;;;;26.90;10.18;;;;;;;;;;5028637;28;20475;-76
2022/01/17 04:11:44;;;;;;;23.30;10.02;;;;;;;;;;5028328;28;20014;-75
2022/01/17 04:14:10;;;;;;;24.48;9.50;;;;;;;;;;5028912;28;20379;-75
2022/01/17 04:16:35;;;;;;;24.00;9.13;;;;;;;;;;5026067;28;20033;-74
2022/01/17 04:19:01;;;;;;;22.25;9.02;;;;;;;;;;5028922;28;20027;-75
2022/01/17 04:21:32;;;;;;;23.83;9.27;;;;;;;;;;5029885;28;20033;-75
2022/01/17 04:23:58;;;;;;;22.55;9.90;;;;;;;;;;5032497;28;20034;-75
2022/01/17 04:26:23;;;;;;;24.40;9.32;;;;;;;;;;5031623;28;20029;-74
2022/01/17 04:28:48;;;;;;;26.42;9.45;;;;;;;;;;5032531;28;20029;-75
2022/01/17 04:31:14;;;;;;;26.55;9.30;;;;;;;;;;5031614;28;20057;-75
2022/01/17 04:33:39;;;;;;;21.52;9.20;;;;;;;;;;5030842;28;20033;-75
2022/01/17 04:36:07;;;;;;;20.92;8.90;;;;;;;;;;5031229;28;20043;-75
2022/01/17 04:38:33;;;;;;;23.25;10.10;;;;;;;;;;5032260;28;20031;-75
2022/01/17 04:41:04;;;;;;;24.83;8.80;;;;;;;;;;5031591;28;20029;-75
2022/01/17 04:46:01;;;;;;;22.65;9.15;;;;;;;;;;5031138;28;20037;-74
2022/01/17 04:48:27;;;;;;;23.67;9.90;;;;;;;;;;5030676;28;20109;-75
2022/01/17 04:50:52;;;;;;;23.50;8.73;;;;;;;;;;5011746;28;20343;-75
2022/01/17 04:53:20;;;;;;;22.70;9.82;;;;;;;;;;5012062;28;20026;-75
2022/01/17 04:55:46;;;;;;;22.20;9.15;;;;;;;;;;5011574;28;20029;-74
2022/01/17 04:58:12;;;;;;;23.52;8.30;;;;;;;;;;5012142;28;20118;-75
2022/01/17 05:00:39;;;;;;;20.75;8.98;;;;;;;;;;5031008;28;20032;-75
2022/01/17 05:03:04;;;;;;;23.67;9.25;;;;;;;;;;5031742;28;20021;-74
2022/01/17 05:05:30;;;;;;;20.48;8.75;;;;;;;;;;5024365;28;20094;-75
2022/01/17 05:07:55;;;;;;;22.70;9.30;;;;;;;;;;5011907;28;20032;-76
2022/01/17 05:10:21;;;;;;;24.20;10.07;;;;;;;;;;5011363;28;20030;-75
2022/01/17 05:12:47;;;;;;;19.42;8.75;;;;;;;;;;5011652;28;20033;-75
2022/01/17 05:15:30;;;;;;;20.40;8.98;;;;;;;;;;5019717;28;20022;-75
2022/01/17 05:18:24;;;;;;;;;;;;;;;;;;5032023;28;20499;-75
2022/01/17 05:20:47;;;;;;;22.88;8.50;;;;;;;;;;5030807;28;20298;-75
2022/01/17 05:23:12;;;;;;;22.00;9.05;;;;;;;;;;5029219;28;20033;-75
2022/01/17 05:25:38;;;;;;;21.55;8.40;;;;;;;;;;5030073;28;20036;-76
2022/01/17 05:28:04;;;;;;;21.45;9.25;;;;;;;;;;5030819;28;20076;-75
2022/01/17 05:30:29;;;;;;;22.73;8.27;;;;;;;;;;5030167;28;20079;-75
2022/01/17 05:32:58;;;;;;;17.20;9.05;;;;;;;;;;5030544;28;20022;-75
2022/01/17 05:35:23;;;;;;;20.10;8.75;;;;;;;;;;5030736;28;20059;-75
2022/01/17 05:37:49;;;;;;;18.88;8.45;;;;;;;;;;5030832;28;20040;-76
2022/01/17 05:40:16;;;;;;;19.40;8.40;;;;;;;;;;5031188;28;20028;-76
2022/01/17 05:42:41;;;;;;;23.02;10.10;;;;;;;;;;5030403;28;20025;-76
2022/01/17 05:45:08;;;;;;;19.98;9.40;;;;;;;;;;5020118;28;20033;-75
2022/01/17 05:47:34;;;;;;;21.08;9.48;;;;;;;;;;5010692;28;20038;-76
2022/01/17 05:50:02;;;;;;;17.92;7.97;;;;;;;;;;5026196;28;20080;-76
2022/01/17 05:52:28;;;;;;;16.30;7.63;;;;;;;;;;5030020;28;20117;-75
2022/01/17 05:54:53;;;;;;;18.23;9.30;;;;;;;;;;5030768;28;20112;-76
2022/01/17 05:57:18;;;;;;;15.52;7.55;;;;;;;;;;5030200;28;20041;-76
2022/01/17 05:59:44;;;;;;;18.80;8.35;;;;;;;;;;5030721;28;20044;-75
2022/01/17 06:02:09;;;;;;;17.40;8.63;;;;;;;;;;5028585;28;20083;-76
2022/01/17 06:04:36;;;;;;;20.23;8.88;;;;;;;;;;5030378;28;20025;-75
2022/01/17 06:07:03;;;;;;;20.02;9.07;;;;;;;;;;5030004;28;20499;-75
2022/01/17 06:09:28;;;;;;;15.68;7.95;;;;;;;;;;5030559;28;20247;-74
2022/01/17 06:11:53;;;;;;;19.50;8.25;;;;;;;;;;5021526;28;20564;-76
2022/01/17 06:14:20;;;;;;;17.38;8.38;;;;;;;;;;5022703;28;20043;-76
2022/01/17 06:16:46;;;;;;;17.25;7.65;;;;;;;;;;5026422;28;20017;-76
2022/01/17 06:19:12;;;;;;;18.70;8.05;;;;;;;;;;5030388;28;20040;-76
2022/01/17 06:21:37;;;;;;;18.45;8.10;;;;;;;;;;5029795;28;20026;-75
2022/01/17 06:24:05;;;;;;;17.58;7.82;;;;;;;;;;5030374;28;20440;-76
2022/01/17 06:26:31;;;;;;;16.90;8.27;;;;;;;;;;5028154;28;20083;-77
2022/01/17 06:28:56;;;;;;;16.42;8.00;;;;;;;;;;5026296;28;20021;-76
2022/01/17 06:31:21;;;;;;;15.73;7.75;;;;;;;;;;5029652;28;20132;-76
2022/01/17 06:33:47;;;;;;;16.63;7.65;;;;;;;;;;5021708;28;20037;-75
2022/01/17 06:36:12;;;;;;;17.95;9.02;;;;;;;;;;5029219;28;20491;-76
2022/01/17 06:38:37;;;;;;;17.23;7.65;;;;;;;;;;5030089;28;20033;-75
2022/01/17 06:41:03;;;;;;;17.67;8.02;;;;;;;;;;5029980;28;20022;-75
2022/01/17 06:43:28;;;;;;;16.83;7.28;;;;;;;;;;5029312;28;20114;-75
2022/01/17 06:45:53;;;;;;;15.10;8.40;;;;;;;;;;5028961;28;20029;-76
2022/01/17 06:48:19;;;;;;;16.17;7.68;;;;;;;;;;5029389;28;20479;-76
2022/01/17 06:50:44;;;;;;;16.00;7.97;;;;;;;;;;5043711;28;20035;-76
2022/01/17 06:53:09;;;;;;;14.13;7.35;;;;;;;;;;5049058;28;20056;-75
2022/01/17 06:55:35;;;;;;;18.38;8.20;;;;;;;;;;5042173;28;20387;-75
2022/01/17 06:58:00;;;;;;;16.95;7.93;;;;;;;;;;5009708;28;20022;-76
2022/01/17 07:00:25;;;;;;;16.45;8.30;;;;;;;;;;5018647;28;20033;-76
2022/01/17 07:02:51;;;;;;;17.08;8.15;;;;;;;;;;5028653;28;20033;-76
2022/01/17 07:05:16;;;;;;;15.18;7.68;;;;;;;;;;5029186;28;20029;-76
2022/01/17 07:07:42;;;;;;;15.13;7.13;;;;;;;;;;5028852;28;20527;-76
2022/01/17 07:10:08;;;;;;;17.50;7.55;;;;;;;;;;5027516;28;20475;-75
2022/01/17 07:12:36;;;;;;;17.42;8.30;;;;;;;;;;5027372;28;20028;-74
2022/01/17 07:15:02;;;;;;;14.57;7.70;;;;;;;;;;5027132;28;20403;-74
2022/01/17 07:17:28;;;;;;;14.00;6.85;;;;;;;;;;5026157;28;20395;-76
2022/01/17 07:19:53;;;;;;;15.02;7.45;;;;;;;;;;5027240;28;20017;-75
2022/01/17 07:22:18;;;;;;;13.50;7.05;;;;;;;;;;5021288;28;20056;-76
2022/01/17 07:24:47;;;;;;;14.85;7.47;;;;;;;;;;5026904;28;20033;-75
2022/01/17 07:27:12;;;;;;;14.68;7.13;;;;;;;;;;5027017;28;20510;-75
2022/01/17 07:29:38;;;;;;;16.42;7.85;;;;;;;;;;5027622;28;20033;-76
2022/01/17 07:32:04;;;;;;;16.10;7.57;;;;;;;;;;5027103;28;20048;-76
2022/01/17 07:34:29;;;;;;;15.95;7.68;;;;;;;;;;5028496;28;20479;-76
2022/01/17 07:36:55;;;;;;;15.30;7.72;;;;;;;;;;5028015;28;20029;-76
2022/01/17 07:39:21;;;;;;;13.10;6.93;;;;;;;;;;5026188;28;20387;-76
2022/01/17 07:41:46;;;;;;;15.93;8.50;;;;;;;;;;5027606;28;20039;-77
2022/01/17 07:44:19;;;;;;;18.98;8.60;;;;;;;;;;5026549;28;20481;-76
2022/01/17 07:46:53;;;;;;;16.80;8.90;;;;;;;;;;5028209;28;20068;-76
2022/01/17 07:49:21;;;;;;;15.05;7.75;;;;;;;;;;5027582;28;20029;-77
2022/01/17 07:51:56;;;;;;;14.27;7.68;;;;;;;;;;5027593;28;20017;-76
2022/01/17 07:54:23;;;;;;;14.85;7.45;;;;;;;;;;5027194;28;20022;-78
2022/01/17 07:56:49;;;;;;;17.30;8.45;;;;;;;;;;5030683;28;20127;-77
2022/01/17 07:59:14;;;;;;;17.15;7.40;;;;;;;;;;5032935;28;20056;-77
2022/01/17 08:01:40;;;;;;;13.80;8.18;;;;;;;;;;5032338;28;20115;-77
2022/01/17 08:04:06;;;;;;;26.65;11.50;;;;;;;;;;5022694;28;20051;-77
2022/01/17 08:06:36;;;;;;;23.88;11.00;;;;;;;;;;5030532;28;20530;-77
2022/01/17 08:09:04;;;;;;;77.45;29.67;;;;;;;;;;5030729;28;20449;-77
2022/01/17 08:11:29;;;;;;;26.17;11.43;;;;;;;;;;5027842;28;20025;-77
2022/01/17 08:13:54;;;;;;;23.27;10.43;;;;;;;;;;5028435;28;20026;-77
2022/01/17 08:16:20;;;;;;;20.17;9.05;;;;;;;;;;5024484;28;20211;-77
2022/01/17 08:18:45;;;;;;;16.80;8.98;;;;;;;;;;5027896;28;20029;-79
2022/01/17 08:21:10;;;;;;;17.27;9.25;;;;;;;;;;5028484;28;20032;-77
2022/01/17 08:23:36;;;;;;;15.55;7.90;;;;;;;;;;5028069;28;20026;-78
2022/01/17 08:26:02;;;;;;;15.10;8.00;;;;;;;;;;5028282;28;20060;-76
2022/01/17 08:28:28;;;;;;;15.70;8.27;;;;;;;;;;5027752;28;20096;-78
2022/01/17 08:30:53;;;;;;;16.45;9.38;;;;;;;;;;5028533;28;20539;-76
2022/01/17 08:33:19;;;;;;;19.50;9.32;;;;;;;;;;5023002;28;20636;-77
2022/01/17 08:35:44;;;;;;;22.15;13.57;;;;;;;;;;5028422;28;20087;-77
2022/01/17 08:38:10;;;;;;;20.73;10.90;;;;;;;;;;5029364;28;20029;-77
2022/01/17 08:40:35;;;;;;;18.20;9.65;;;;;;;;;;5028285;28;20052;-77
2022/01/17 08:43:00;;;;;;;16.83;9.80;;;;;;;;;;5027849;28;20061;-78
2022/01/17 08:45:26;;;;;;;17.05;9.63;;;;;;;;;;5028023;28;20029;-75
2022/01/17 08:47:52;;;;;;;19.20;9.95;;;;;;;;;;5028819;28;20075;-77
2022/01/17 08:50:21;;;;;;;19.90;9.65;;;;;;;;;;5027552;28;20022;-77
2022/01/17 08:52:47;;;;;;;19.70;10.57;;;;;;;;;;5028804;28;20068;-76
2022/01/17 08:55:14;;;;;;;16.02;9.23;;;;;;;;;;5026726;28;20502;-75
2022/01/17 08:57:40;;;;;;;20.17;10.20;;;;;;;;;;5021406;28;20108;-76
2022/01/17 09:00:13;;;;;;;20.15;10.68;;;;;;;;;;5026290;28;21101;-75
2022/01/17 09:02:39;;;;;;;19.27;9.20;;;;;;;;;;5024795;28;20059;-76
2022/01/17 09:05:04;;;;;;;18.35;8.82;;;;;;;;;;5026817;28;20057;-76
2022/01/17 09:07:30;;;;;;;13.75;7.80;;;;;;;;;;5027630;28;20095;-76
2022/01/17 09:09:55;;;;;;;15.82;8.77;;;;;;;;;;5026490;28;20506;-76
2022/01/17 09:12:20;;;;;;;14.73;8.55;;;;;;;;;;5026629;28;20376;-76
2022/01/17 09:14:46;;;;;;;13.52;8.20;;;;;;;;;;5026651;28;20051;-76
2022/01/17 09:17:12;;;;;;;16.25;8.68;;;;;;;;;;5026191;28;20026;-75
2022/01/17 09:19:39;;;;;;;18.27;11.07;;;;;;;;;;5027175;28;20036;-76
2022/01/17 09:22:06;;;;;;;15.73;9.15;;;;;;;;;;5027448;28;20029;-76
2022/01/17 09:24:33;;;;;;;14.48;7.65;;;;;;;;;;5025610;28;20580;-76
2022/01/17 09:26:58;;;;;;;13.82;7.78;;;;;;;;;;5027696;28;20025;-76
2022/01/17 09:29:24;;;;;;;14.50;8.25;;;;;;;;;;5026946;28;20091;-76
2022/01/17 09:31:49;;;;;;;13.02;7.65;;;;;;;;;;5027006;28;20075;-76
2022/01/17 09:34:14;;;;;;;15.15;7.75;;;;;;;;;;5027150;28;20100;-76
2022/01/17 09:36:40;;;;;;;13.40;7.53;;;;;;;;;;5027177;28;20134;-73
2022/01/17 09:39:06;;;;;;;15.00;7.13;;;;;;;;;;5026419;28;20032;-77
2022/01/17 09:41:33;;;;;;;15.73;7.65;;;;;;;;;;5026995;28;20041;-75
2022/01/17 09:43:58;;;;;;;13.85;8.13;;;;;;;;;;5025009;28;20172;-76
2022/01/17 09:46:27;;;;;;;17.17;8.68;;;;;;;;;;5026572;28;20112;-76
2022/01/17 09:49:00;;;;;;;14.05;7.43;;;;;;;;;;5027343;28;20527;-76
2022/01/17 09:54:04;;;;;;;14.27;7.88;;;;;;;;;;5025913;28;20040;-77
2022/01/17 09:56:30;;;;;;;12.27;6.93;;;;;;;;;;5026517;28;20022;-76
2022/01/17 09:58:57;;;;;;;13.00;7.63;;;;;;;;;;5027046;28;20123;-74
2022/01/17 10:01:23;;;;;;;13.50;7.82;;;;;;;;;;5026272;28;20017;-76
2022/01/17 10:03:48;;;;;;;14.98;7.72;;;;;;;;;;5026144;28;20029;-75
2022/01/17 10:06:14;;;;;;;13.43;7.28;;;;;;;;;;5026274;28;20519;-76
2022/01/17 10:08:39;;;;;;;12.38;7.47;;;;;;;;;;5026425;28;20029;-75
2022/01/17 10:11:13;;;;;;;12.32;7.00;;;;;;;;;;5025763;28;20021;-77
2022/01/17 10:13:44;;;;;;;13.73;7.93;;;;;;;;;;5026604;28;20036;-75
2022/01/17 10:16:20;;;;;;;15.55;9.15;;;;;;;;;;5026172;28;20507;-76
2022/01/17 10:19:04;;;;;;;15.65;8.38;;;;;;;;;;5025349;28;20033;-75
2022/01/17 10:21:47;;;;;;;;;;;;;;;;;;5026226;28;20425;-76
2022/01/17 10:24:26;;;;;;;12.90;7.38;;;;;;;;;;5026599;28;20067;-76
2022/01/17 10:27:07;;;;;;;13.15;7.78;;;;;;;;;;5025920;28;20521;-75
2022/01/17 10:35:22;;;;;;;13.00;7.55;;;;;;;;;;5024112;28;20107;-76
2022/01/17 10:37:56;;;;;;;13.05;6.93;;;;;;;;;;5025954;28;20025;-74
2022/01/17 10:40:21;;;;;;;10.98;7.15;;;;;;;;;;5026359;28;20033;-74
2022/01/17 10:42:48;;;;;;;12.68;6.95;;;;;;;;;;5026065;28;20049;-75
2022/01/17 10:45:31;;;;;;;11.85;5.82;;;;;;;;;;5025075;28;20227;-73
2022/01/17 10:47:58;;;;;;;12.50;7.53;;;;;;;;;;5025460;28;20029;-75
2022/01/17 10:50:54;;;;;;;11.77;6.72;;;;;;;;;;5025310;28;20448;-73
2022/01/17 10:53:19;;;;;;;14.02;7.57;;;;;;;;;;5025847;28;20124;-75
2022/01/17 10:55:54;;;;;;;13.40;6.72;;;;;;;;;;5024978;28;20124;-74
2022/01/17 10:58:26;;;;;;;13.35;7.20;;;;;;;;;;5025357;28;20117;-74
2022/01/17 11:00:57;;;;;;;12.13;6.47;;;;;;;;;;5021508;28;20335;-74
2022/01/17 11:03:27;;;;;;;13.32;7.03;;;;;;;;;;5025772;28;20452;-73
2022/01/17 11:05:55;;;;;;;13.10;6.88;;;;;;;;;;5021720;28;20075;-74
2022/01/17 11:08:23;;;;;;;16.83;8.63;;;;;;;;;;5024353;28;20036;-73
2022/01/17 11:10:54;;;;;;;20.35;10.60;;;;;;;;;;5025152;28;20104;-74
2022/01/17 11:13:23;;;;;;;13.95;7.60;;;;;;;;;;5023833;28;20098;-75
2022/01/17 11:15:54;;;;;;;12.15;6.97;;;;;;;;;;5023527;28;20021;-74
2022/01/17 11:18:23;;;;;;;13.13;7.13;;;;;;;;;;5023742;28;20535;-74
2022/01/17 11:21:00;;;;;;;13.25;7.45;;;;;;;;;;5016258;28;20448;-74
2022/01/17 11:23:26;;;;;;;15.07;8.20;;;;;;;;;;5031576;28;20404;-74
2022/01/17 11:25:54;;;;;;;13.88;6.78;;;;;;;;;;5024493;28;20080;-75
2022/01/17 11:28:23;;;;;;;11.18;6.95;;;;;;;;;;5024597;28;20037;-74
2022/01/17 11:30:50;;;;;;;14.88;7.93;;;;;;;;;;5025528;28;20487;-73
2022/01/17 11:33:15;;;;;;;12.75;7.15;;;;;;;;;;5026205;28;20077;-73
2022/01/17 11:35:42;;;;;;;13.55;6.82;;;;;;;;;;5028198;28;20350;-74
2022/01/17 11:38:14;;;;;;;13.93;7.60;;;;;;;;;;5029943;28;20021;-74
2022/01/17 11:40:42;;;;;;;14.60;7.78;;;;;;;;;;5029226;28;20424;-74
2022/01/17 11:43:21;;;;;;;16.80;8.23;;;;;;;;;;5028866;28;20029;-73
2022/01/17 11:45:47;;;;;;;16.33;9.05;;;;;;;;;;5029235;28;20036;-74
2022/01/17 11:48:31;;;;;;;15.43;8.88;;;;;;;;;;5028665;28;20029;-74
2022/01/17 11:51:19;;;;;;;16.15;8.02;;;;;;;;;;5031071;28;20033;-74
2022/01/17 11:53:54;;;;;;;17.15;8.70;;;;;;;;;;5028792;28;20407;-74
2022/01/17 11:56:40;;;;;;;18.42;9.55;;;;;;;;;;5028809;28;20176;-74
2022/01/17 11:59:36;;;;;;;17.20;9.35;;;;;;;;;;5029580;28;20024;-74
2022/01/17 12:02:13;;;;;;;17.42;9.25;;;;;;;;;;5028388;28;20055;-74
2022/01/17 12:04:39;;;;;;;18.02;9.05;;;;;;;;;;5028762;28;20056;-75
2022/01/17 12:07:05;;;;;;;17.15;8.65;;;;;;;;;;5029221;28;20514;-74
2022/01/17 12:09:30;;;;;;;17.80;8.90;;;;;;;;;;5028951;28;20088;-74
2022/01/17 12:11:55;;;;;;;12.25;7.47;;;;;;;;;;5028642;28;20495;-74
2022/01/17 12:14:22;;;;;;;16.77;8.55;;;;;;;;;;5029575;28;20314;-74
2022/01/17 12:16:48;;;;;;;18.52;9.02;;;;;;;;;;5028636;28;20077;-74
2022/01/17 12:19:13;;;;;;;18.20;8.98;;;;;;;;;;5029485;28;20069;-74
2022/01/17 12:21:57;;;;;;;22.77;9.70;;;;;;;;;;5028465;28;20593;-74
2022/01/17 12:24:36;;;;;;;19.27;9.38;;;;;;;;;;5028966;28;20025;-74
2022/01/17 12:27:07;;;;;;;18.85;8.60;;;;;;;;;;5028699;28;20025;-74
2022/01/17 12:29:42;;;;;;;18.67;10.05;;;;;;;;;;5029042;28;20490;-74
2022/01/17 12:32:20;;;;;;;17.85;8.80;;;;;;;;;;5028282;28;20017;-73
2022/01/17 12:34:46;;;;;;;18.65;9.25;;;;;;;;;;5027238;28;20651;-74
2022/01/17 12:37:35;;;;;;;14.93;8.38;;;;;;;;;;5027713;28;20033;-74
2022/01/17 12:40:07;;;;;;;16.95;8.40;;;;;;;;;;5028805;28;20045;-74
2022/01/17 12:42:46;;;;;;;15.60;8.52;;;;;;;;;;5020111;28;20026;-72
2022/01/17 12:45:11;;;;;;;17.63;8.63;;;;;;;;;;5027921;28;20025;-73
2022/01/17 12:47:41;;;;;;;18.35;9.05;;;;;;;;;;5028100;28;20080;-72
2022/01/17 12:50:07;;;;;;;15.95;7.57;;;;;;;;;;5028733;28;20080;-72
2022/01/17 12:52:32;;;;;;;15.63;8.30;;;;;;;;;;5026935;28;20029;-72
2022/01/17 12:54:57;;;;;;;18.73;8.57;;;;;;;;;;5027091;28;20021;-72
2022/01/17 12:57:24;;;;;;;14.38;7.28;;;;;;;;;;5027217;28;20025;-73
2022/01/17 12:59:49;;;;;;;19.20;9.07;;;;;;;;;;5026736;28;20114;-73
2022/01/17 13:02:14;;;;;;;19.67;8.68;;;;;;;;;;5027433;28;20590;-73
2022/01/17 13:04:40;;;;;;;17.20;9.00;;;;;;;;;;5027739;28;20037;-73
2022/01/17 13:07:07;;;;;;;16.98;9.25;;;;;;;;;;5026983;28;20033;-74
2022/01/17 13:09:37;;;;;;;16.95;8.52;;;;;;;;;;5026556;28;20101;-73
2022/01/17 13:12:05;;;;;;;18.63;9.15;;;;;;;;;;5027028;28;20418;-74
2022/01/17 13:14:32;;;;;;;16.58;8.98;;;;;;;;;;5026378;28;20029;-72
2022/01/17 13:16:57;;;;;;;17.85;9.40;;;;;;;;;;5028528;28;20017;-73
2022/01/17 13:19:23;;;;;;;19.85;9.25;;;;;;;;;;5026380;28;20032;-74
2022/01/17 13:21:50;;;;;;;16.55;8.65;;;;;;;;;;5027162;28;20060;-75
2022/01/17 13:24:34;;;;;;;17.80;8.52;;;;;;;;;;5027394;28;20680;-75
2022/01/17 13:27:03;;;;;;;19.50;9.52;;;;;;;;;;5027560;28;20040;-74
2022/01/17 13:29:37;;;;;;;22.40;9.77;;;;;;;;;;5026297;28;20033;-74
2022/01/17 13:32:05;;;;;;;18.45;9.80;;;;;;;;;;5027669;28;20584;-75
2022/01/17 13:34:31;;;;;;;18.80;9.35;;;;;;;;;;5026331;28;20033;-74
2022/01/17 13:37:01;;;;;;;21.38;9.93;;;;;;;;;;5027371;28;20531;-73
2022/01/17 13:39:27;;;;;;;21.45;11.48;;;;;;;;;;5026464;28;20025;-75
2022/01/17 13:41:55;;;;;;;18.98;9.63;;;;;;;;;;5027102;28;20099;-75
2022/01/17 13:44:29;;;;;;;15.85;8.15;;;;;;;;;;5025820;28;20036;-75
2022/01/17 13:47:05;;;;;;;18.92;8.98;;;;;;;;;;5027239;28;20435;-75
2022/01/17 13:49:33;;;;;;;19.13;10.23;;;;;;;;;;5026204;28;20028;-75
2022/01/17 13:51:59;;;;;;;21.77;10.07;;;;;;;;;;5027289;28;20509;-74
2022/01/17 13:54:26;;;;;;;17.42;9.57;;;;;;;;;;5024522;28;20090;-77
2022/01/17 13:56:52;;;;;;;17.90;10.20;;;;;;;;;;5027190;28;20021;-75
2022/01/17 13:59:18;;;;;;;17.55;8.73;;;;;;;;;;5026680;28;20049;-75
2022/01/17 14:01:43;;;;;;;18.08;9.50;;;;;;;;;;5026399;28;20053;-75
2022/01/17 14:04:16;;;;;;;17.20;8.38;;;;;;;;;;5026202;28;20108;-75
2022/01/17 14:06:41;;;;;;;;;;;;;;;;;;5027585;28;20029;-75
2022/01/17 14:09:08;;;;;;;17.60;9.45;;;;;;;;;;5026316;28;20638;-76
2022/01/17 14:11:35;;;;;;;15.35;8.10;;;;;;;;;;5026568;28;20025;-75
2022/01/17 14:14:00;;;;;;;17.08;8.05;;;;;;;;;;5026198;28;20025;-74
2022/01/17 14:16:27;;;;;;;18.08;9.55;;;;;;;;;;5026163;28;20467;-74
2022/01/17 14:19:22;;;;;;;17.65;8.68;;;;;;;;;;5026320;28;20371;-74
2022/01/17 14:22:06;;;;;;;17.65;9.30;;;;;;;;;;5024054;28;20038;-74
2022/01/17 14:24:39;;;;;;;18.88;10.10;;;;;;;;;;5026150;28;20025;-74
2022/01/17 14:27:14;;;;;;;18.40;9.38;;;;;;;;;;5026825;28;20017;-75
2022/01/17 14:29:43;;;;;;;18.95;9.43;;;;;;;;;;5025425;28;20057;-75
2022/01/17 14:32:11;;;;;;;25.85;11.98;;;;;;;;;;5025689;28;20013;-75
2022/01/17 14:34:38;;;;;;;20.25;9.35;;;;;;;;;;5025393;28;20028;-75
2022/01/17 14:37:08;;;;;;;16.73;8.93;;;;;;;;;;5026464;28;20037;-75
2022/01/17 14:39:55;;;;;;;31.77;12.45;;;;;;;;;;5024763;28;20025;-75
2022/01/17 14:42:32;;;;;;;24.40;10.27;;;;;;;;;;5025829;28;20650;-75
2022/01/17 14:44:59;;;;;;;52.97;19.73;;;;;;;;;;5025457;28;20049;-74
2022/01/17 14:47:27;;;;;;;31.90;14.60;;;;;;;;;;5026128;28;20412;-74
2022/01/17 14:49:57;;;;;;;35.75;17.10;;;;;;;;;;5024959;28;20036;-76
2022/01/17 14:52:29;;;;;;;21.55;11.75;;;;;;;;;;5026070;28;20036;-76
2022/01/17 15:00:30;;;;;;;17.13;8.82;;;;;;;;;;5024736;28;20056;-75